Thursday, April 02, 2015
09:45 UTC
  |  Log In   |  Register Free
Airport Search:

Firelands Community Hospital Nr 2 Airport
(OI87)

Firelands Community Hospital Nr 2 Airport Diagram
No Airport Diagram Available

FAA data valid effective March 05, 2015 - April 30, 2015 (unless otherwise noted).

 
 
 
 
 
 
 
 
 
 
 
 
 
 

Current Aviation Weather for Firelands Community Hospital Nr 2 Airport (OI87)

METAR data is unavailable for OI87. The nearest METAR location is at KPCW (8.3 nm NW from OI87).

The most recent METAR observation for KPCW was updated at: 0910
METAR Summary (Translated METAR)
KPCW
020853Z AUTO 18008KT 10SM CLR 07/00 A2993 RMK AO2 56010 T00660000 $
(8.3 nm NW from OI87)
KLPR
020853Z AUTO 19009KT 10SM CLR 07/M01 A2997 RMK AO2 SLP151 T00721011 56014 TSNO
(24.8 nm SE from OI87)
TAF
No TAF information found within 50 nm of KLPR
  Airport Weather Conditions for OI87

Current weather conditions are
not available for OI87


The nearest NOAA weather station
is at PCW, (8.3 nm NW from OI87)
  
 Current Weather at PCW
44° F
Fair
South winds at 9.2 mph
PCW NOAA Radar

Pressure: 29.93 in
Humidity: 63%
Wind: South at 9.2 MPH (8 KT)
Dew Point: 32.0°F
Visibility: 10.00 mi


Airport Weather Forecast for OI87

Translated METAR and TAF for KLPR
Translated METAR for KLPR (0944 UTC 02 April 2015)
found at http://aviationweather.gov/adds/metars/
 
METAR text: KLPR 020853Z AUTO 19009KT 10SM CLR 07/M01 A2997 RMK AO2 SLP151 T00721011 56014 TSNO
Conditions at: KLPR (LORAIN/ELYRIA , OH, US) observed 0853 UTC 02 April 2015
Temperature: 7.2°C (45°F)
Dewpoint: -1.1°C (30°F) [RH = 56%]
Pressure (altimeter): 29.97 inches Hg (1015.0 mb)
[Sea-level pressure: 1015.1 mb]
Winds: from the S (190 degrees) at 10 MPH (9 knots; 4.7 m/s)
Visibility: 10 or more miles (16+ km)
Ceiling: at least 12,000 feet AGL
Clouds: sky clear below 12,000 feet AGL
Weather: automated observation with no human augmentation;
there may or may not be significant weather present at this time
Translated TAF for KLPR

There is no translated TAF available for this airport

Find All Airport Services Find A Hotel Find A Rental Car Find A Golf Course Find A Restaurant $100 Hamburger



FBO's on the Field
FBO Company Facility Photos Services Transportation Aviation Fuel Prices: Prices include tax
Catering Weather Repair Courtesy Rental Type 100LL JetA JetA+ MOGAS 8087
 
Add another FBO Facility Photos Catering Weather Repair Courtesy Rental Type 100LL JetA JetA+ MOGAS 8087
Services Transportation Aviation Fuel Prices: Prices include tax
There are no FBO's currently reporting fuel at OI87. List your FBO now


model-print
model-print
model-print
model-print